Time;durP1;ratioP1;P1;durP2;ratioP2;P2;SDS_P1;SDS_P2;PMS_P1;PMS_P2;Temp;Humidity;BMP_temperature;BMP_pressure;BME280_temperature;BME280_humidity;BME280_pressure;Samples;Min_cycle;Max_cycle;Signal;HPM_P1;HPM_P2
2021/03/20 00:00:24;;;;;;;12.73;6.97;;;1.00;99.90;;;;;;5032957;28;20446;-49
2021/03/20 00:02:51;;;;;;;12.70;7.70;;;1.00;99.90;;;;;;5033360;28;20465;-49
2021/03/20 00:05:18;;;;;;;12.53;7.50;;;1.00;99.90;;;;;;5033272;28;20603;-49
2021/03/20 00:07:45;;;;;;;15.63;8.47;;;0.90;99.90;;;;;;5034015;28;20455;-48
2021/03/20 00:10:15;;;;;;;11.30;7.17;;;0.90;99.90;;;;;;5033940;28;20993;-48
2021/03/20 00:12:43;;;;;;;14.83;7.30;;;0.90;99.90;;;;;;5033356;28;20569;-49
2021/03/20 00:15:12;;;;;;;13.10;6.70;;;0.80;99.90;;;;;;5033957;28;20449;-49
2021/03/20 00:17:40;;;;;;;11.93;6.70;;;0.80;99.90;;;;;;5033888;28;20449;-49
2021/03/20 00:20:08;;;;;;;13.83;7.20;;;0.80;99.90;;;;;;5033765;28;20466;-49
2021/03/20 00:22:35;;;;;;;12.70;6.40;;;0.80;99.90;;;;;;5033462;28;20478;-49
2021/03/20 00:25:01;;;;;;;12.17;6.10;;;0.80;99.90;;;;;;5033446;28;20508;-49
2021/03/20 00:27:28;;;;;;;10.13;6.23;;;0.80;99.90;;;;;;5033327;28;20864;-49
2021/03/20 00:29:54;;;;;;;12.13;6.60;;;0.80;99.90;;;;;;5033050;28;20458;-49
2021/03/20 00:32:21;;;;;;;14.70;7.10;;;0.80;99.90;;;;;;5032141;28;20474;-49
2021/03/20 00:34:48;;;;;;;11.37;6.50;;;0.80;99.90;;;;;;5033534;28;20504;-49
2021/03/20 00:37:14;;;;;;;12.30;6.50;;;0.80;99.90;;;;;;5033279;28;20872;-49
2021/03/20 00:39:41;;;;;;;11.43;6.50;;;0.80;99.90;;;;;;5033119;28;20967;-49
2021/03/20 00:42:08;;;;;;;9.53;5.60;;;0.80;99.90;;;;;;5033251;28;20507;-49
2021/03/20 00:44:35;;;;;;;12.00;5.90;;;0.80;99.90;;;;;;5032214;28;20442;-49
2021/03/20 00:47:01;;;;;;;11.63;5.60;;;0.80;99.90;;;;;;5033017;28;20458;-49
2021/03/20 00:49:31;;;;;;;10.43;5.90;;;0.90;99.90;;;;;;5033202;28;20453;-49
2021/03/20 00:51:59;;;;;;;9.70;5.63;;;0.90;99.90;;;;;;5032849;28;20485;-49
2021/03/20 00:54:25;;;;;;;9.13;5.27;;;0.90;99.90;;;;;;5032873;28;20514;-49
2021/03/20 00:56:52;;;;;;;10.23;4.70;;;0.90;99.90;;;;;;5032576;28;20458;-49
2021/03/20 00:59:18;;;;;;;9.10;5.00;;;1.00;99.90;;;;;;5032270;28;20458;-49
2021/03/20 01:01:45;;;;;;;11.87;5.80;;;1.00;99.90;;;;;;5032890;28;20470;-49
2021/03/20 01:04:11;;;;;;;8.77;5.17;;;0.90;99.90;;;;;;5032119;28;20450;-48
2021/03/20 01:06:38;;;;;;;8.80;4.57;;;0.90;99.90;;;;;;5032415;28;20538;-48
2021/03/20 01:09:07;;;;;;;6.23;4.30;;;0.90;99.90;;;;;;5032238;28;20455;-49
2021/03/20 01:11:34;;;;;;;8.83;5.27;;;0.90;99.90;;;;;;5032586;28;20479;-49
2021/03/20 01:14:00;;;;;;;7.67;4.47;;;0.90;99.90;;;;;;5033234;28;20483;-48
2021/03/20 01:16:28;;;;;;;6.57;4.37;;;0.90;99.90;;;;;;5032818;28;20457;-48
2021/03/20 01:18:55;;;;;;;7.97;4.70;;;0.80;99.90;;;;;;5032642;28;20488;-49
2021/03/20 01:21:23;;;;;;;9.80;5.00;;;0.90;99.90;;;;;;5032799;28;20991;-48
2021/03/20 01:23:50;;;;;;;10.90;5.53;;;0.80;99.90;;;;;;5032333;28;20512;-49
2021/03/20 01:26:17;;;;;;;9.80;5.70;;;0.80;99.90;;;;;;5031857;28;20454;-49
2021/03/20 01:28:43;;;;;;;10.17;5.63;;;0.90;99.90;;;;;;5032320;28;20459;-49
2021/03/20 01:31:13;;;;;;;13.20;6.30;;;0.90;99.90;;;;;;5032689;28;20471;-49
2021/03/20 01:33:39;;;;;;;9.83;5.67;;;0.80;99.90;;;;;;5032293;28;20482;-48
2021/03/20 01:36:07;;;;;;;15.30;6.37;;;0.90;99.90;;;;;;5032244;28;20458;-49
2021/03/20 01:38:34;;;;;;;14.10;7.33;;;0.80;99.90;;;;;;5032284;28;20450;-48
2021/03/20 01:41:02;;;;;;;13.63;6.70;;;0.80;99.90;;;;;;5031985;28;20524;-48
2021/03/20 01:43:31;;;;;;;14.60;7.00;;;0.70;99.90;;;;;;5032301;28;20462;-49
2021/03/20 01:46:31;;;;;;;14.37;7.50;;;0.80;99.90;;;;;;5031868;28;20456;-49
2021/03/20 01:48:58;;;;;;;14.53;7.40;;;0.80;99.90;;;;;;5031925;28;20520;-49
2021/03/20 01:51:25;;;;;;;13.03;6.97;;;0.80;99.90;;;;;;5031897;28;20479;-48
2021/03/20 01:53:55;;;;;;;11.97;6.57;;;0.70;99.90;;;;;;5031030;28;20481;-49
2021/03/20 01:56:28;;;;;;;12.13;6.67;;;0.80;99.90;;;;;;5031752;28;20955;-49
2021/03/20 01:58:55;;;;;;;13.50;7.10;;;0.80;99.90;;;;;;5031712;28;20521;-49
2021/03/20 02:01:24;;;;;;;12.90;7.20;;;0.80;99.90;;;;;;5032220;28;20470;-49
2021/03/20 02:03:52;;;;;;;13.53;6.50;;;0.70;99.90;;;;;;5031693;28;20457;-48
2021/03/20 02:06:19;;;;;;;10.43;5.90;;;0.70;99.90;;;;;;5031573;28;20455;-49
2021/03/20 02:08:47;;;;;;;11.67;6.43;;;0.70;99.90;;;;;;5031581;28;20465;-49
2021/03/20 02:11:20;;;;;;;14.00;6.73;;;0.70;99.90;;;;;;5031488;28;21029;-48
2021/03/20 02:13:52;;;;;;;15.43;7.43;;;0.70;99.90;;;;;;5031255;28;20482;-49
2021/03/20 02:16:26;;;;;;;16.20;7.17;;;0.70;99.90;;;;;;5031576;28;20479;-49
2021/03/20 02:19:02;;;;;;;13.93;7.07;;;0.70;99.90;;;;;;5031670;28;20451;-49
2021/03/20 02:21:34;;;;;;;13.73;7.40;;;0.70;99.90;;;;;;5031591;28;20466;-48
2021/03/20 02:24:45;;;;;;;13.47;7.40;;;0.70;99.90;;;;;;5031176;28;20835;-49
2021/03/20 02:27:44;;;;;;;13.50;7.10;;;0.60;99.90;;;;;;5031573;28;20465;-49
2021/03/20 02:30:24;;;;;;;14.30;7.13;;;0.60;99.90;;;;;;5031195;28;20458;-48
2021/03/20 02:33:08;;;;;;;17.90;8.30;;;0.60;99.90;;;;;;5031002;28;20466;-49
2021/03/20 02:35:42;;;;;;;15.73;7.50;;;0.60;99.90;;;;;;5030952;28;20457;-48
2021/03/20 02:38:18;;;;;;;16.20;7.63;;;0.50;99.90;;;;;;5030840;28;20473;-48
2021/03/20 02:40:53;;;;;;;17.97;8.17;;;0.50;99.90;;;;;;5031113;28;20462;-49
2021/03/20 02:43:26;;;;;;;17.87;8.63;;;0.50;99.90;;;;;;5031211;28;20457;-49
2021/03/20 02:46:00;;;;;;;21.63;8.90;;;0.40;99.90;;;;;;5030598;28;20993;-49
2021/03/20 02:48:36;;;;;;;15.77;8.33;;;0.30;99.90;;;;;;5030983;28;20457;-49
2021/03/20 02:51:07;;;;;;;19.93;8.60;;;0.20;99.90;;;;;;5030889;28;20487;-49
2021/03/20 02:53:37;;;;;;;17.47;8.57;;;0.20;99.90;;;;;;5031088;28;20542;-48
2021/03/20 02:56:09;;;;;;;22.20;9.90;;;0.20;99.90;;;;;;5031018;28;20456;-49
2021/03/20 02:58:42;;;;;;;20.67;9.30;;;0.10;99.90;;;;;;5030920;28;20501;-49
2021/03/20 03:01:12;;;;;;;16.80;8.47;;;0.10;99.90;;;;;;5030754;28;21011;-49
2021/03/20 03:03:43;;;;;;;17.57;9.00;;;0.10;99.90;;;;;;5031070;28;20450;-49
2021/03/20 03:06:17;;;;;;;21.60;9.70;;;0.10;99.90;;;;;;5030775;28;20457;-49
2021/03/20 03:08:46;;;;;;;23.27;9.53;;;0.10;99.90;;;;;;5030438;28;20450;-49
2021/03/20 03:11:18;;;;;;;19.67;8.67;;;0.10;99.90;;;;;;5030834;28;20850;-49
2021/03/20 03:13:50;;;;;;;18.00;8.90;;;0.10;99.90;;;;;;5030779;28;20906;-48
2021/03/20 03:16:19;;;;;;;21.47;9.60;;;0.00;99.90;;;;;;5030441;28;20977;-49
2021/03/20 03:18:51;;;;;;;17.57;8.13;;;-0.10;99.90;;;;;;5030246;28;20482;-49
2021/03/20 03:21:20;;;;;;;22.00;9.40;;;-0.10;99.90;;;;;;5030319;28;20473;-49
2021/03/20 03:23:47;;;;;;;20.37;9.07;;;-0.10;99.90;;;;;;5030728;28;20457;-49
2021/03/20 03:26:17;;;;;;;22.63;9.87;;;-0.20;99.90;;;;;;5030765;28;20450;-48
2021/03/20 03:28:48;;;;;;;17.37;9.10;;;-0.20;99.90;;;;;;5018621;28;20444;-48
2021/03/20 03:31:28;;;;;;;27.73;11.67;;;-0.30;99.90;;;;;;5030788;28;20556;-49
2021/03/20 03:34:02;;;;;;;21.73;10.20;;;-0.30;99.90;;;;;;5030713;28;20863;-48
2021/03/20 03:36:34;;;;;;;22.20;10.60;;;-0.30;99.90;;;;;;5029764;28;20463;-49
2021/03/20 03:39:13;;;;;;;20.60;10.00;;;-0.40;99.90;;;;;;5030708;28;20430;-49
2021/03/20 03:41:40;;;;;;;22.90;10.93;;;-0.40;99.90;;;;;;5030534;28;20531;-49
2021/03/20 03:44:08;;;;;;;22.73;10.00;;;-0.40;99.90;;;;;;5030298;28;20449;-49
2021/03/20 03:46:40;;;;;;;25.83;10.90;;;-0.50;99.90;;;;;;5030288;28;20461;-49
2021/03/20 03:49:10;;;;;;;25.63;11.53;;;-0.50;99.90;;;;;;5031787;28;20449;-49
2021/03/20 03:51:37;;;;;;;24.33;10.70;;;-0.50;99.90;;;;;;5032072;28;20565;-49
2021/03/20 03:54:04;;;;;;;22.77;10.70;;;-0.50;99.90;;;;;;5032629;28;20992;-49
2021/03/20 03:56:46;;;;;;;23.90;10.17;;;-0.60;99.90;;;;;;5032225;28;20480;-49
2021/03/20 03:59:15;;;;;;;23.50;11.10;;;-0.60;99.90;;;;;;5032693;28;20450;-49
2021/03/20 04:01:51;;;;;;;21.87;10.70;;;-0.60;99.90;;;;;;5032721;28;21014;-49
2021/03/20 04:04:45;;;;;;;23.23;9.97;;;-0.70;99.90;;;;;;5031706;28;20531;-48
2021/03/20 04:07:39;;;;;;;21.77;10.37;;;-0.70;99.90;;;;;;5031694;28;20440;-49
2021/03/20 04:10:12;;;;;;;25.30;11.60;;;-0.70;99.90;;;;;;5033099;28;20477;-49
2021/03/20 04:12:49;;;;;;;21.97;10.90;;;-0.70;99.90;;;;;;5033238;28;20476;-49
2021/03/20 04:15:23;;;;;;;20.53;10.47;;;-0.70;99.90;;;;;;5031776;28;20479;-48
2021/03/20 04:17:58;;;;;;;31.43;12.10;;;-0.80;99.90;;;;;;5035370;28;20448;-48
2021/03/20 04:20:32;;;;;;;21.13;10.17;;;-0.80;99.90;;;;;;5035901;28;20455;-48
2021/03/20 04:23:02;;;;;;;24.13;11.20;;;-0.80;99.90;;;;;;5036998;28;20457;-48
2021/03/20 04:25:37;;;;;;;28.17;11.83;;;-0.90;99.90;;;;;;5036834;28;20836;-49
2021/03/20 04:28:13;;;;;;;26.27;12.47;;;-0.90;99.90;;;;;;5035963;28;20455;-48
2021/03/20 04:30:41;;;;;;;30.17;13.03;;;-1.00;99.90;;;;;;5036553;28;20835;-49
2021/03/20 04:33:14;;;;;;;28.83;12.43;;;-1.00;99.90;;;;;;5036103;28;20476;-48
2021/03/20 04:35:48;;;;;;;24.20;11.30;;;-1.00;99.90;;;;;;5035187;28;20449;-48
2021/03/20 04:38:16;;;;;;;26.30;11.67;;;-1.00;99.90;;;;;;5035548;28;20452;-48
2021/03/20 04:40:45;;;;;;;28.70;13.60;;;-1.00;99.90;;;;;;5036334;28;20491;-48
2021/03/20 04:43:16;;;;;;;24.23;11.67;;;-1.00;99.90;;;;;;5036635;28;20452;-49
2021/03/20 04:45:47;;;;;;;23.20;12.07;;;-1.10;99.90;;;;;;5036453;28;20452;-49
2021/03/20 04:48:19;;;;;;;28.37;11.73;;;-1.00;99.90;;;;;;5037355;28;20449;-48
2021/03/20 04:50:52;;;;;;;24.90;11.40;;;-0.90;99.90;;;;;;5037421;28;20524;-48
2021/03/20 04:53:19;;;;;;;26.20;11.33;;;-0.90;99.90;;;;;;5037694;28;20478;-49
2021/03/20 04:55:46;;;;;;;24.83;11.23;;;-0.90;99.90;;;;;;5043306;28;20453;-49
2021/03/20 04:58:19;;;;;;;25.70;11.10;;;-0.90;99.90;;;;;;5049209;28;20452;-49
2021/03/20 05:00:49;;;;;;;26.53;11.57;;;-0.80;99.90;;;;;;5050695;28;20452;-49
2021/03/20 05:03:21;;;;;;;21.00;10.00;;;-0.80;99.90;;;;;;5050778;28;20970;-49
2021/03/20 05:05:51;;;;;;;23.27;10.57;;;-0.80;99.90;;;;;;5050425;28;20458;-49
2021/03/20 05:08:24;;;;;;;23.13;11.07;;;-0.80;99.90;;;;;;5050844;28;20450;-50
2021/03/20 05:10:56;;;;;;;21.50;11.00;;;-1.00;99.90;;;;;;5042540;28;20453;-49
2021/03/20 05:13:34;;;;;;;21.57;10.93;;;-0.80;99.90;;;;;;5041127;28;20482;-49
2021/03/20 05:16:07;;;;;;;24.00;11.70;;;-0.70;99.90;;;;;;5037671;28;20889;-49
2021/03/20 05:18:33;;;;;;;29.67;10.30;;;-0.70;99.90;;;;;;5037464;28;20446;-49
2021/03/20 05:21:01;;;;;;;23.30;10.20;;;-0.70;99.90;;;;;;5037194;28;20470;-49
2021/03/20 05:23:27;;;;;;;22.20;10.90;;;-0.90;99.90;;;;;;5036098;28;20457;-51
2021/03/20 05:25:53;;;;;;;26.70;11.03;;;-1.00;99.90;;;;;;5036492;28;20982;-49
2021/03/20 05:28:20;;;;;;;21.00;9.67;;;-1.10;99.90;;;;;;5035426;28;20456;-49
2021/03/20 05:30:46;;;;;;;24.47;10.37;;;-1.10;99.90;;;;;;5035729;28;20483;-48
2021/03/20 05:33:14;;;;;;;23.00;10.80;;;-1.10;99.90;;;;;;5035396;28;20530;-49
2021/03/20 05:35:40;;;;;;;25.13;11.30;;;-0.90;99.90;;;;;;5035474;28;20456;-49
2021/03/20 05:38:08;;;;;;;24.77;10.67;;;-0.80;99.90;;;;;;5036175;28;20453;-49
2021/03/20 05:40:34;;;;;;;19.80;9.77;;;-0.80;99.90;;;;;;5035046;28;20459;-49
2021/03/20 05:43:33;;;;;;;23.33;10.30;;;-0.60;99.90;;;;;;5035762;28;20800;-48
2021/03/20 05:46:17;;;;;;;20.40;10.20;;;-0.40;99.90;;;;;;5035257;28;20451;-49
2021/03/20 05:48:55;;;;;;;21.47;9.60;;;-0.30;99.90;;;;;;5035633;28;20510;-49
2021/03/20 05:51:41;;;;;;;21.80;9.67;;;-0.20;99.90;;;;;;5035816;28;20480;-49
2021/03/20 05:54:22;;;;;;;20.57;10.40;;;0.00;99.90;;;;;;5026825;28;20506;-49
2021/03/20 05:57:00;;;;;;;21.20;10.00;;;0.10;99.90;;;;;;5035687;28;20462;-49
2021/03/20 05:59:41;;;;;;;18.83;9.33;;;0.30;99.90;;;;;;5028951;28;20952;-49
2021/03/20 06:02:37;;;;;;;19.40;9.33;;;0.40;99.90;;;;;;5016223;28;20922;-49
2021/03/20 06:05:20;;;;;;;23.40;10.23;;;0.50;99.90;;;;;;5055366;22;20490;-46
2021/03/20 06:07:53;;;;;;;19.07;9.70;;;0.50;99.90;;;;;;5051579;28;20436;-46
2021/03/20 06:10:47;;;;;;;22.67;10.30;;;0.40;99.90;;;;;;5061657;28;20439;-47
2021/03/20 06:13:30;;;;;;;19.23;9.00;;;0.10;99.90;;;;;;5068593;28;20444;-46
2021/03/20 06:16:18;;;;;;;18.70;8.50;;;0.00;99.90;;;;;;5042267;28;20478;-46
2021/03/20 06:19:08;;;;;;;20.80;9.53;;;0.10;99.90;;;;;;5036991;28;20444;-46
2021/03/20 06:21:59;;;;;;;20.30;9.30;;;0.40;99.90;;;;;;5034294;28;20499;-46
2021/03/20 06:25:02;;;;;;;16.13;9.03;;;0.80;99.90;;;;;;5050206;28;20824;-48
2021/03/20 06:27:35;;;;;;;16.90;8.40;;;0.80;99.90;;;;;;5025959;28;20477;-48
2021/03/20 06:30:09;;;;;;;20.17;8.90;;;1.10;99.90;;;;;;5049667;28;20823;-46
2021/03/20 06:32:41;;;;;;;17.10;8.80;;;1.40;99.90;;;;;;5049603;28;20503;-46
2021/03/20 06:35:29;;;;;;;17.10;8.77;;;1.30;99.90;;;;;;5049365;28;20486;-46
2021/03/20 06:37:58;;;;;;;18.43;8.90;;;1.00;99.90;;;;;;5051213;28;20462;-46
2021/03/20 06:40:43;;;;;;;15.67;8.27;;;0.90;99.90;;;;;;5051016;28;20557;-46
2021/03/20 06:43:14;;;;;;;16.60;7.83;;;0.90;99.90;;;;;;5050529;28;20493;-46
2021/03/20 06:45:41;;;;;;;15.20;8.10;;;0.80;99.90;;;;;;5050854;28;20967;-46
2021/03/20 06:48:11;;;;;;;15.30;8.00;;;0.90;99.90;;;;;;5050914;28;20507;-46
2021/03/20 06:50:42;;;;;;;14.10;8.10;;;1.20;99.90;;;;;;5061356;28;20540;-47
2021/03/20 06:53:11;;;;;;;13.40;6.90;;;1.50;99.90;;;;;;5052239;28;20454;-46
2021/03/20 06:55:40;;;;;;;15.83;8.47;;;1.50;99.90;;;;;;5050554;28;20489;-46
2021/03/20 06:58:16;;;;;;;13.73;7.80;;;1.60;99.90;;;;;;5049484;28;20546;-46
2021/03/20 07:00:43;;;;;;;14.80;8.10;;;1.70;99.90;;;;;;5051074;28;21327;-46
2021/03/20 07:03:36;;;;;;;13.57;7.60;;;1.70;99.90;;;;;;5051078;28;20454;-46
2021/03/20 07:06:12;;;;;;;16.10;7.23;;;1.40;99.90;;;;;;5050575;28;20536;-46
2021/03/20 07:08:46;;;;;;;15.23;8.40;;;1.50;99.90;;;;;;5045122;28;20456;-46
2021/03/20 07:11:20;;;;;;;16.00;8.20;;;1.70;99.90;;;;;;5031092;28;20448;-46
2021/03/20 07:13:51;;;;;;;14.87;8.07;;;1.70;99.90;;;;;;5044463;28;20994;-47
2021/03/20 07:16:20;;;;;;;15.70;9.23;;;2.00;99.90;;;;;;5050527;28;20471;-47
2021/03/20 07:18:48;;;;;;;14.63;8.10;;;1.90;99.90;;;;;;5047488;28;20545;-47
2021/03/20 07:21:29;;;;;;;15.07;8.80;;;2.10;99.90;;;;;;5048875;28;20459;-47
2021/03/20 07:24:01;;;;;;;15.97;8.30;;;2.40;99.90;;;;;;5032602;28;20454;-46
2021/03/20 07:26:29;;;;;;;13.80;8.30;;;2.60;99.90;;;;;;5030622;28;20452;-46
2021/03/20 07:28:59;;;;;;;13.83;7.70;;;2.80;99.90;;;;;;5030700;28;20455;-46
2021/03/20 07:31:28;;;;;;;21.60;9.10;;;2.50;99.90;;;;;;5036671;28;20458;-46
2021/03/20 07:33:56;;;;;;;16.15;9.02;;;2.40;99.90;;;;;;5033047;28;20417;-46
2021/03/20 07:36:30;;;;;;;15.77;8.63;;;2.70;99.90;;;;;;5038153;28;20722;-47
2021/03/20 07:39:15;;;;;;;16.00;8.17;;;3.10;99.90;;;;;;5046500;28;20501;-46
2021/03/20 07:41:56;;;;;;;14.97;7.53;;;3.20;99.90;;;;;;5047656;28;20455;-46
2021/03/20 07:44:26;;;;;;;15.37;8.13;;;3.30;99.90;;;;;;5047531;28;20472;-46
2021/03/20 07:46:53;;;;;;;15.87;8.03;;;3.10;99.90;;;;;;5048034;28;21059;-46
2021/03/20 07:49:28;;;;;;;14.80;8.20;;;2.70;99.90;;;;;;5032554;28;20992;-46
2021/03/20 07:51:57;;;;;;;17.37;8.27;;;2.70;99.90;;;;;;5047357;28;20457;-46
2021/03/20 07:54:28;;;;;;;14.43;7.63;;;2.50;99.90;;;;;;5053999;28;20495;-46
2021/03/20 07:57:05;;;;;;;17.30;8.37;;;2.20;99.90;;;;;;5054055;28;20449;-46
2021/03/20 07:59:33;;;;;;;14.40;7.80;;;1.80;99.90;;;;;;5052096;28;20458;-46
2021/03/20 08:02:01;;;;;;;14.70;7.73;;;1.60;99.90;;;;;;5037179;28;20589;-46
2021/03/20 08:04:48;;;;;;;19.10;9.17;;;1.50;99.90;;;;;;5034579;28;20482;-46
2021/03/20 08:07:32;;;;;;;16.10;8.40;;;1.40;99.90;;;;;;5033929;28;20450;-46
2021/03/20 08:10:18;;;;;;;14.43;7.80;;;1.40;99.90;;;;;;5045016;28;20533;-45
2021/03/20 08:12:57;;;;;;;16.87;8.57;;;1.50;99.90;;;;;;5036681;28;20472;-45
2021/03/20 08:15:27;;;;;;;16.00;8.73;;;1.80;99.90;;;;;;5045816;28;20839;-45
2021/03/20 08:17:54;;;;;;;16.20;8.63;;;2.00;99.90;;;;;;5053890;28;20448;-46
2021/03/20 08:20:21;;;;;;;16.23;7.60;;;2.40;99.90;;;;;;5033944;28;20808;-45
2021/03/20 08:23:16;;;;;;;14.57;8.10;;;2.30;99.90;;;;;;5034249;28;20480;-45
2021/03/20 08:26:02;;;;;;;14.87;8.50;;;2.50;99.90;;;;;;5033544;28;20465;-45
2021/03/20 08:28:49;;;;;;;16.03;9.00;;;3.20;99.90;;;;;;5053751;28;20491;-46
2021/03/20 08:31:37;;;;;;;15.00;8.03;;;4.00;99.90;;;;;;5043609;28;20964;-45
2021/03/20 08:34:13;;;;;;;14.57;7.37;;;4.20;99.90;;;;;;5053435;28;20490;-45
2021/03/20 08:36:55;;;;;;;14.17;7.60;;;4.00;99.90;;;;;;5039264;28;20452;-45
2021/03/20 08:39:40;;;;;;;15.83;8.43;;;3.40;99.90;;;;;;5037348;28;20558;-45
2021/03/20 08:42:17;;;;;;;16.03;7.90;;;3.20;99.90;;;;;;5054353;28;20508;-45
2021/03/20 08:45:07;;;;;;;13.57;7.80;;;2.80;99.90;;;;;;5053227;28;20493;-45
2021/03/20 08:48:17;;;;;;;13.30;7.03;;;2.90;99.90;;;;;;5034196;28;20464;-46
2021/03/20 08:50:54;;;;;;;11.83;6.93;;;3.20;99.90;;;;;;5033557;28;20502;-46
2021/03/20 08:53:28;;;;;;;10.70;6.57;;;3.50;99.90;;;;;;5041427;28;20459;-45
2021/03/20 08:56:03;;;;;;;20.77;7.33;;;2.70;99.90;;;;;;5038469;28;20470;-46
2021/03/20 08:58:44;;;;;;;13.60;7.93;;;2.60;99.90;;;;;;5038085;28;20452;-46
2021/03/20 09:01:22;;;;;;;13.50;7.73;;;2.90;99.90;;;;;;5052895;28;20446;-46
2021/03/20 09:03:53;;;;;;;12.30;6.50;;;2.90;99.90;;;;;;5048124;28;20452;-45
2021/03/20 09:06:25;;;;;;;16.00;7.80;;;2.80;99.90;;;;;;5035228;28;20848;-45
2021/03/20 09:08:54;;;;;;;11.37;6.60;;;2.80;99.90;;;;;;5037853;28;20439;-45
2021/03/20 09:11:38;;;;;;;10.50;5.70;;;2.50;99.90;;;;;;5052373;28;20455;-45
2021/03/20 09:14:13;;;;;;;9.80;5.60;;;2.20;99.90;;;;;;5052808;28;20590;-45
2021/03/20 09:16:44;;;;;;;8.93;5.30;;;2.00;99.90;;;;;;5052461;28;20532;-45
2021/03/20 09:19:19;;;;;;;11.03;5.43;;;1.80;99.90;;;;;;5052437;28;20855;-45
2021/03/20 09:21:46;;;;;;;7.77;4.60;;;1.70;99.90;;;;;;5052516;28;20973;-45
2021/03/20 09:24:18;;;;;;;8.10;4.23;;;1.60;99.90;;;;;;5043714;28;20479;-46
2021/03/20 09:26:46;;;;;;;8.23;4.20;;;1.90;99.90;;;;;;5045151;28;20456;-46
2021/03/20 09:29:19;;;;;;;7.10;4.27;;;2.00;99.90;;;;;;5036968;28;20499;-45
2021/03/20 09:32:05;;;;;;;8.70;5.90;;;1.90;99.90;;;;;;5048953;28;20440;-46
2021/03/20 09:34:42;;;;;;;9.77;5.60;;;2.00;99.90;;;;;;5048217;28;20275;-46
2021/03/20 09:37:57;;;;;;;8.20;4.40;;;2.20;99.90;;;;;;5036808;28;20457;-46
2021/03/20 09:40:49;;;;;;;7.17;4.47;;;2.00;99.90;;;;;;5031992;28;20459;-46
2021/03/20 09:43:35;;;;;;;7.17;4.23;;;2.20;99.90;;;;;;5032177;28;20458;-46
2021/03/20 09:46:34;;;;;;;6.37;3.80;;;2.30;99.90;;;;;;5047149;28;20480;-45
2021/03/20 09:49:02;;;;;;;7.67;4.13;;;2.40;99.90;;;;;;5041084;28;20494;-46
2021/03/20 09:51:58;;;;;;;12.50;6.27;;;3.20;99.90;;;;;;5034401;28;20860;-46
2021/03/20 09:54:45;;;;;;;17.90;7.33;;;3.50;99.90;;;;;;5058547;28;20487;-46
2021/03/20 09:57:50;;;;;;;8.73;4.83;;;3.30;99.90;;;;;;5051484;28;20451;-46
2021/03/20 10:00:57;;;;;;;8.77;4.60;;;3.20;99.90;;;;;;5031811;28;20495;-46
2021/03/20 10:03:41;;;;;;;7.30;4.10;;;2.90;99.90;;;;;;5025119;28;20480;-45
2021/03/20 10:06:20;;;;;;;6.30;3.70;;;2.90;99.90;;;;;;5041440;28;20480;-45
2021/03/20 10:08:57;;;;;;;6.30;3.80;;;2.60;99.90;;;;;;5035365;28;20443;-46
2021/03/20 10:11:30;;;;;;;5.10;3.90;;;2.60;99.90;;;;;;5045991;28;20439;-47
2021/03/20 10:13:57;;;;;;;6.50;4.03;;;2.90;99.90;;;;;;5049100;28;20486;-47
2021/03/20 10:16:26;;;;;;;5.87;3.90;;;3.00;99.90;;;;;;5031189;28;20495;-47
2021/03/20 10:19:07;;;;;;;5.57;3.43;;;3.20;99.90;;;;;;5031945;28;20455;-46
2021/03/20 10:21:33;;;;;;;5.70;3.70;;;2.90;99.90;;;;;;5031598;28;20818;-46
2021/03/20 10:24:20;;;;;;;4.80;3.30;;;2.60;99.90;;;;;;5033733;28;20447;-47
2021/03/20 10:26:56;;;;;;;4.33;3.23;;;3.00;99.90;;;;;;5038456;28;20940;-46
2021/03/20 10:29:40;;;;;;;5.20;3.77;;;4.00;99.90;;;;;;5051278;28;20455;-47
2021/03/20 10:32:16;;;;;;;5.53;3.70;;;4.20;99.90;;;;;;5051575;28;20534;-47
2021/03/20 10:34:47;;;;;;;3.83;3.00;;;4.50;99.90;;;;;;5051445;28;20518;-47
2021/03/20 10:37:17;;;;;;;5.87;3.53;;;4.40;99.90;;;;;;5050621;28;20456;-46
2021/03/20 10:39:46;;;;;;;3.80;2.97;;;3.90;99.90;;;;;;5045359;28;20482;-46
2021/03/20 10:42:21;;;;;;;4.80;3.50;;;3.60;99.90;;;;;;5036292;28;20459;-46
2021/03/20 10:44:52;;;;;;;4.60;3.20;;;3.40;99.90;;;;;;5051022;28;20459;-46
2021/03/20 10:47:30;;;;;;;6.25;3.70;;;3.60;99.90;;;;;;5049084;28;20445;-46
2021/03/20 10:50:05;;;;;;;4.80;3.60;;;4.10;99.90;;;;;;5050566;28;20666;-46
2021/03/20 10:52:34;;;;;;;6.30;4.60;;;4.60;99.90;;;;;;5045250;28;20455;-46
2021/03/20 10:55:10;;;;;;;5.10;3.37;;;5.00;99.90;;;;;;5041931;28;21019;-46
2021/03/20 10:57:38;;;;;;;5.50;3.67;;;5.50;98.10;;;;;;5050516;28;21026;-46
2021/03/20 11:00:18;;;;;;;5.07;3.07;;;5.60;98.50;;;;;;5050231;28;20455;-46
2021/03/20 11:02:44;;;;;;;3.90;2.87;;;5.30;99.50;;;;;;5050329;28;20495;-46
2021/03/20 11:05:32;;;;;;;4.33;3.40;;;5.40;99.10;;;;;;5050042;28;20478;-45
2021/03/20 11:08:02;;;;;;;4.80;3.10;;;4.30;99.90;;;;;;5050649;28;20527;-46
2021/03/20 11:10:33;;;;;;;5.90;3.10;;;3.90;99.50;;;;;;5049824;28;20513;-46
2021/03/20 11:13:05;;;;;;;5.23;3.00;;;4.00;99.90;;;;;;5034670;28;20452;-46
2021/03/20 11:15:35;;;;;;;3.97;3.03;;;4.70;98.90;;;;;;5030527;28;20991;-47
2021/03/20 11:18:05;;;;;;;5.53;3.80;;;4.30;99.90;;;;;;5030264;28;20754;-46
2021/03/20 11:20:36;;;;;;;5.07;3.33;;;3.90;99.10;;;;;;5047971;28;20953;-46
2021/03/20 11:23:03;;;;;;;5.80;3.83;;;4.10;98.40;;;;;;5050127;28;20458;-46
2021/03/20 11:25:35;;;;;;;5.00;3.60;;;3.90;99.60;;;;;;5049509;28;20460;-46
2021/03/20 11:28:06;;;;;;;4.50;3.40;;;3.60;99.40;;;;;;5048976;28;20537;-46
2021/03/20 11:30:40;;;;;;;6.30;3.90;;;3.60;99.90;;;;;;5049365;28;20446;-46
2021/03/20 11:33:07;;;;;;;6.10;3.50;;;4.00;99.90;;;;;;5050049;28;20452;-46
2021/03/20 11:35:35;;;;;;;4.20;3.10;;;4.30;99.90;;;;;;5049414;28;20560;-46
2021/03/20 11:38:04;;;;;;;3.47;3.10;;;4.00;99.90;;;;;;5050003;28;20452;-46
2021/03/20 11:40:35;;;;;;;6.07;3.40;;;3.70;99.90;;;;;;5049619;28;20497;-46
2021/03/20 11:43:05;;;;;;;5.37;3.40;;;3.80;99.90;;;;;;5048234;28;20898;-46
2021/03/20 11:45:34;;;;;;;5.97;3.90;;;4.20;99.90;;;;;;5049681;28;20468;-46
2021/03/20 11:48:04;;;;;;;7.10;4.27;;;4.30;99.90;;;;;;5049793;28;20505;-46
2021/03/20 11:50:34;;;;;;;3.90;3.13;;;4.70;99.90;;;;;;5034711;28;20452;-46
2021/03/20 11:53:04;;;;;;;3.70;2.93;;;5.00;99.90;;;;;;5030240;28;20452;-47
2021/03/20 11:55:37;;;;;;;4.37;3.13;;;4.70;99.90;;;;;;5029498;28;20997;-46
2021/03/20 11:58:07;;;;;;;4.60;3.30;;;4.50;99.90;;;;;;5029983;28;20451;-46
2021/03/20 12:00:39;;;;;;;5.27;2.77;;;4.80;99.90;;;;;;5042268;28;20459;-46
2021/03/20 12:03:26;;;;;;;3.80;3.13;;;4.60;99.70;;;;;;5050179;28;20447;-46
2021/03/20 12:05:54;;;;;;;4.00;3.20;;;4.50;97.20;;;;;;5070695;22;20518;-48
2021/03/20 12:08:34;;;;;;;4.40;3.40;;;4.70;96.70;;;;;;5049540;28;20464;-48
2021/03/20 12:11:04;;;;;;;4.33;3.30;;;4.50;98.30;;;;;;5050087;28;20451;-48
2021/03/20 12:13:46;;;;;;;4.10;2.87;;;4.50;99.00;;;;;;5049212;28;20472;-48
2021/03/20 12:16:41;;;;;;;4.00;2.80;;;4.50;99.90;;;;;;5035196;28;20475;-48
2021/03/20 12:19:19;;;;;;;2.73;2.37;;;5.10;96.50;;;;;;5029919;28;20795;-48
2021/03/20 12:22:07;;;;;;;3.40;3.10;;;5.20;97.60;;;;;;5029966;28;20452;-49
2021/03/20 12:24:41;;;;;;;4.10;2.80;;;5.60;98.30;;;;;;5025198;28;20453;-49
2021/03/20 12:27:32;;;;;;;5.43;3.13;;;5.70;99.00;;;;;;5029507;28;20444;-49
2021/03/20 12:30:07;;;;;;;4.00;2.90;;;6.00;94.80;;;;;;5024503;28;20453;-49
2021/03/20 12:32:41;;;;;;;4.97;3.27;;;5.80;93.60;;;;;;5017671;28;20460;-49
2021/03/20 12:35:32;;;;;;;6.20;3.60;;;5.70;95.60;;;;;;5029137;28;20491;-50
2021/03/20 12:38:12;;;;;;;4.50;3.20;;;5.40;94.10;;;;;;5029875;28;20969;-48
2021/03/20 12:40:39;;;;;;;10.13;4.80;;;5.20;94.70;;;;;;5029617;28;20448;-50
2021/03/20 12:43:15;;;;;;;5.00;3.97;;;5.10;94.10;;;;;;5032767;28;21004;-50
2021/03/20 12:45:41;;;;;;;4.97;3.20;;;5.00;95.70;;;;;;5032036;28;20500;-49
2021/03/20 12:48:11;;;;;;;3.50;3.20;;;4.50;97.50;;;;;;5032846;28;20479;-49
2021/03/20 12:50:38;;;;;;;6.00;3.60;;;4.70;95.90;;;;;;5033172;28;20466;-49
2021/03/20 12:53:06;;;;;;;4.63;3.10;;;5.00;98.20;;;;;;5032882;28;20448;-49
2021/03/20 12:55:32;;;;;;;4.67;3.30;;;4.30;96.00;;;;;;5032373;28;20496;-49
2021/03/20 12:58:00;;;;;;;5.07;3.23;;;4.50;98.70;;;;;;5032517;28;20444;-49
2021/03/20 13:00:27;;;;;;;3.13;2.80;;;4.50;97.30;;;;;;5031859;28;20456;-49
2021/03/20 13:02:54;;;;;;;4.00;2.90;;;4.20;98.00;;;;;;5031991;28;20452;-49
2021/03/20 13:05:26;;;;;;;6.30;3.30;;;4.10;96.60;;;;;;5030791;28;20546;-49
2021/03/20 13:07:53;;;;;;;4.27;3.27;;;4.00;97.60;;;;;;5031849;28;20457;-49
2021/03/20 13:10:20;;;;;;;4.93;3.03;;;4.10;98.50;;;;;;5030131;28;20525;-49
2021/03/20 13:12:46;;;;;;;6.53;3.43;;;4.10;95.40;;;;;;5029995;28;20526;-50
2021/03/20 13:15:14;;;;;;;4.77;3.40;;;4.30;97.10;;;;;;5031749;28;21082;-50
2021/03/20 13:17:42;;;;;;;5.27;3.13;;;4.70;95.80;;;;;;5032367;28;20461;-49
2021/03/20 13:20:12;;;;;;;4.33;3.27;;;4.80;95.80;;;;;;5032281;28;20856;-50